sensor_id;sensor_type;location;lat;lon;timestamp;pressure;altitude;pressure_sealevel;temperature;humidity
61488;BME280;47351;53.326;-6.298;2024-02-26T00:01:16;100658.63;;;4.97;91.72
61488;BME280;47351;53.326;-6.298;2024-02-26T00:04:28;100663.20;;;4.96;91.65
61488;BME280;47351;53.326;-6.298;2024-02-26T00:07:34;100672.21;;;4.96;91.78
61488;BME280;47351;53.326;-6.298;2024-02-26T00:10:39;100678.48;;;4.97;91.80
61488;BME280;47351;53.326;-6.298;2024-02-26T00:13:54;100683.15;;;5.00;91.97
61488;BME280;47351;53.326;-6.298;2024-02-26T00:16:52;100696.75;;;5.05;92.08
61488;BME280;47351;53.326;-6.298;2024-02-26T00:19:58;100701.45;;;5.08;92.00
61488;BME280;47351;53.326;-6.298;2024-02-26T00:23:05;100702.60;;;5.12;92.07
61488;BME280;47351;53.326;-6.298;2024-02-26T00:26:18;100708.16;;;5.13;91.90
61488;BME280;47351;53.326;-6.298;2024-02-26T00:29:32;100711.74;;;5.12;91.84
61488;BME280;47351;53.326;-6.298;2024-02-26T00:32:45;100718.41;;;5.13;91.77
61488;BME280;47351;53.326;-6.298;2024-02-26T00:35:59;100728.27;;;5.14;91.70
61488;BME280;47351;53.326;-6.298;2024-02-26T00:39:05;100734.98;;;5.14;91.75
61488;BME280;47351;53.326;-6.298;2024-02-26T00:42:11;100737.29;;;5.14;91.92
61488;BME280;47351;53.326;-6.298;2024-02-26T00:45:24;100747.33;;;5.12;91.93
61488;BME280;47351;53.326;-6.298;2024-02-26T00:48:38;100754.10;;;5.09;91.92
61488;BME280;47351;53.326;-6.298;2024-02-26T00:51:51;100758.65;;;5.05;91.92
61488;BME280;47351;53.326;-6.298;2024-02-26T00:54:57;100763.62;;;5.03;92.03
61488;BME280;47351;53.326;-6.298;2024-02-26T00:57:55;100770.98;;;5.01;92.02
61488;BME280;47351;53.326;-6.298;2024-02-26T01:01:08;100780.84;;;5.02;92.08
61488;BME280;47351;53.326;-6.298;2024-02-26T01:04:11;100786.52;;;5.02;92.13
61488;BME280;47351;53.326;-6.298;2024-02-26T01:07:15;100792.34;;;5.02;92.14
61488;BME280;47351;53.326;-6.298;2024-02-26T01:10:17;100798.60;;;5.01;92.17
61488;BME280;47351;53.326;-6.298;2024-02-26T01:13:30;100802.39;;;5.00;92.19
61488;BME280;47351;53.326;-6.298;2024-02-26T01:16:22;100806.70;;;4.99;92.16
61488;BME280;47351;53.326;-6.298;2024-02-26T01:19:34;100817.26;;;5.00;92.17
61488;BME280;47351;53.326;-6.298;2024-02-26T01:22:47;100822.59;;;5.02;92.30
61488;BME280;47351;53.326;-6.298;2024-02-26T01:25:45;100827.17;;;5.04;92.35
61488;BME280;47351;53.326;-6.298;2024-02-26T01:28:58;100837.84;;;5.06;92.31
61488;BME280;47351;53.326;-6.298;2024-02-26T01:32:12;100848.61;;;5.06;92.09
61488;BME280;47351;53.326;-6.298;2024-02-26T01:35:23;100856.80;;;5.05;91.92
61488;BME280;47351;53.326;-6.298;2024-02-26T01:38:36;100864.08;;;5.03;91.77
61488;BME280;47351;53.326;-6.298;2024-02-26T01:41:48;100869.60;;;5.02;91.72
61488;BME280;47351;53.326;-6.298;2024-02-26T01:45:01;100874.77;;;5.02;91.71
61488;BME280;47351;53.326;-6.298;2024-02-26T01:48:06;100878.39;;;5.01;91.73
61488;BME280;47351;53.326;-6.298;2024-02-26T01:51:02;100890.46;;;4.98;91.66
61488;BME280;47351;53.326;-6.298;2024-02-26T01:53:57;100898.23;;;4.94;91.58
61488;BME280;47351;53.326;-6.298;2024-02-26T01:57:10;100915.26;;;4.89;91.62
61488;BME280;47351;53.326;-6.298;2024-02-26T02:00:24;100931.14;;;4.82;91.64
61488;BME280;47351;53.326;-6.298;2024-02-26T02:03:32;100942.69;;;4.77;91.64
61488;BME280;47351;53.326;-6.298;2024-02-26T02:06:39;100946.69;;;4.73;91.71
61488;BME280;47351;53.326;-6.298;2024-02-26T02:09:53;100954.87;;;4.70;91.79
61488;BME280;47351;53.326;-6.298;2024-02-26T02:13:00;100966.38;;;4.64;91.76
61488;BME280;47351;53.326;-6.298;2024-02-26T02:16:03;100972.21;;;4.57;91.71
61488;BME280;47351;53.326;-6.298;2024-02-26T02:19:17;100980.27;;;4.49;91.68
61488;BME280;47351;53.326;-6.298;2024-02-26T02:22:30;100988.63;;;4.43;91.91
61488;BME280;47351;53.326;-6.298;2024-02-26T02:25:39;100990.77;;;4.38;92.01
61488;BME280;47351;53.326;-6.298;2024-02-26T02:28:42;100994.24;;;4.34;92.11
61488;BME280;47351;53.326;-6.298;2024-02-26T02:31:38;101003.21;;;4.30;92.17
61488;BME280;47351;53.326;-6.298;2024-02-26T02:34:51;101010.67;;;4.24;92.06
61488;BME280;47351;53.326;-6.298;2024-02-26T02:37:54;101013.31;;;4.17;92.09
61488;BME280;47351;53.326;-6.298;2024-02-26T02:41:07;101008.03;;;4.09;92.14
61488;BME280;47351;53.326;-6.298;2024-02-26T02:44:13;101013.16;;;4.04;92.18
61488;BME280;47351;53.326;-6.298;2024-02-26T02:47:08;101023.58;;;3.99;92.25
61488;BME280;47351;53.326;-6.298;2024-02-26T02:50:20;101030.71;;;3.93;92.42
61488;BME280;47351;53.326;-6.298;2024-02-26T02:53:18;101035.20;;;3.87;92.50
61488;BME280;47351;53.326;-6.298;2024-02-26T02:56:17;101043.20;;;3.81;92.60
61488;BME280;47351;53.326;-6.298;2024-02-26T02:59:30;101055.09;;;3.75;92.74
61488;BME280;47351;53.326;-6.298;2024-02-26T03:02:34;101068.85;;;3.70;92.94
61488;BME280;47351;53.326;-6.298;2024-02-26T03:05:30;101076.53;;;3.66;92.97
61488;BME280;47351;53.326;-6.298;2024-02-26T03:08:23;101078.95;;;3.62;93.19
61488;BME280;47351;53.326;-6.298;2024-02-26T03:11:36;101082.17;;;3.58;93.42
61488;BME280;47351;53.326;-6.298;2024-02-26T03:14:43;101089.55;;;3.54;93.51
61488;BME280;47351;53.326;-6.298;2024-02-26T03:17:35;101095.33;;;3.49;93.59
61488;BME280;47351;53.326;-6.298;2024-02-26T03:20:49;101108.05;;;3.46;93.71
61488;BME280;47351;53.326;-6.298;2024-02-26T03:24:02;101113.15;;;3.44;93.85
61488;BME280;47351;53.326;-6.298;2024-02-26T03:27:14;101122.22;;;3.43;93.95
61488;BME280;47351;53.326;-6.298;2024-02-26T03:30:27;101124.02;;;3.42;94.12
61488;BME280;47351;53.326;-6.298;2024-02-26T03:33:39;101130.45;;;3.41;94.19
61488;BME280;47351;53.326;-6.298;2024-02-26T03:36:38;101135.52;;;3.39;94.25
61488;BME280;47351;53.326;-6.298;2024-02-26T03:39:30;101136.61;;;3.36;94.32
61488;BME280;47351;53.326;-6.298;2024-02-26T03:42:26;101137.95;;;3.32;94.35
61488;BME280;47351;53.326;-6.298;2024-02-26T03:45:32;101144.73;;;3.29;94.45
61488;BME280;47351;53.326;-6.298;2024-02-26T03:48:38;101154.98;;;3.25;94.47
61488;BME280;47351;53.326;-6.298;2024-02-26T03:51:51;101168.20;;;3.22;94.63
61488;BME280;47351;53.326;-6.298;2024-02-26T03:54:53;101175.89;;;3.21;94.72
61488;BME280;47351;53.326;-6.298;2024-02-26T03:58:04;101186.27;;;3.18;94.82
61488;BME280;47351;53.326;-6.298;2024-02-26T04:01:16;101203.06;;;3.15;94.76
61488;BME280;47351;53.326;-6.298;2024-02-26T04:04:29;101210.05;;;3.11;94.77
61488;BME280;47351;53.326;-6.298;2024-02-26T04:07:43;101212.77;;;3.07;94.87
61488;BME280;47351;53.326;-6.298;2024-02-26T04:10:56;101215.84;;;3.03;94.99
61488;BME280;47351;53.326;-6.298;2024-02-26T04:14:08;101221.20;;;3.02;95.13
61488;BME280;47351;53.326;-6.298;2024-02-26T04:17:06;101223.20;;;3.01;95.25
61488;BME280;47351;53.326;-6.298;2024-02-26T04:20:14;101234.63;;;3.01;95.36
61488;BME280;47351;53.326;-6.298;2024-02-26T04:23:28;101244.15;;;3.01;95.57
61488;BME280;47351;53.326;-6.298;2024-02-26T04:26:23;101250.52;;;3.01;95.61
61488;BME280;47351;53.326;-6.298;2024-02-26T04:29:26;101254.91;;;2.99;95.55
61488;BME280;47351;53.326;-6.298;2024-02-26T04:32:22;101261.41;;;2.96;95.55
61488;BME280;47351;53.326;-6.298;2024-02-26T04:35:35;101277.06;;;2.94;95.46
61488;BME280;47351;53.326;-6.298;2024-02-26T04:38:41;101284.74;;;2.92;95.53
61488;BME280;47351;53.326;-6.298;2024-02-26T04:41:45;101288.50;;;2.92;95.63
61488;BME280;47351;53.326;-6.298;2024-02-26T04:44:50;101293.27;;;2.92;95.70
61488;BME280;47351;53.326;-6.298;2024-02-26T04:47:54;101303.89;;;2.91;95.64
61488;BME280;47351;53.326;-6.298;2024-02-26T04:51:08;101306.80;;;2.89;95.70
61488;BME280;47351;53.326;-6.298;2024-02-26T04:54:28;101311.84;;;2.88;95.69
61488;BME280;47351;53.326;-6.298;2024-02-26T04:58:00;101315.35;;;2.85;95.67
61488;BME280;47351;53.326;-6.298;2024-02-26T05:01:19;101327.83;;;2.83;95.71
61488;BME280;47351;53.326;-6.298;2024-02-26T05:04:26;101331.01;;;2.83;95.73
61488;BME280;47351;53.326;-6.298;2024-02-26T05:07:33;101341.17;;;2.83;95.76
61488;BME280;47351;53.326;-6.298;2024-02-26T05:10:48;101351.35;;;2.84;95.88
61488;BME280;47351;53.326;-6.298;2024-02-26T05:13:54;101356.84;;;2.84;95.95
61488;BME280;47351;53.326;-6.298;2024-02-26T05:17:07;101363.02;;;2.81;95.65
61488;BME280;47351;53.326;-6.298;2024-02-26T05:20:12;101369.70;;;2.75;95.48
61488;BME280;47351;53.326;-6.298;2024-02-26T05:23:25;101380.23;;;2.70;95.40
61488;BME280;47351;53.326;-6.298;2024-02-26T05:26:31;101385.44;;;2.65;95.48
61488;BME280;47351;53.326;-6.298;2024-02-26T05:29:43;101394.75;;;2.63;95.58
61488;BME280;47351;53.326;-6.298;2024-02-26T05:32:38;101404.70;;;2.62;95.69
61488;BME280;47351;53.326;-6.298;2024-02-26T05:35:44;101412.93;;;2.60;95.82
61488;BME280;47351;53.326;-6.298;2024-02-26T05:38:39;101418.05;;;2.57;95.79
61488;BME280;47351;53.326;-6.298;2024-02-26T05:41:52;101422.24;;;2.54;95.97
61488;BME280;47351;53.326;-6.298;2024-02-26T05:44:54;101425.23;;;2.51;96.08
61488;BME280;47351;53.326;-6.298;2024-02-26T05:48:08;101428.08;;;2.47;96.10
61488;BME280;47351;53.326;-6.298;2024-02-26T05:51:04;101436.52;;;2.45;95.95
61488;BME280;47351;53.326;-6.298;2024-02-26T05:54:18;101453.92;;;2.42;95.93
61488;BME280;47351;53.326;-6.298;2024-02-26T05:57:30;101457.47;;;2.42;96.07
61488;BME280;47351;53.326;-6.298;2024-02-26T06:00:31;101461.15;;;2.42;96.21
61488;BME280;47351;53.326;-6.298;2024-02-26T06:03:41;101459.90;;;2.43;96.32
61488;BME280;47351;53.326;-6.298;2024-02-26T06:06:37;101459.39;;;2.42;96.36
61488;BME280;47351;53.326;-6.298;2024-02-26T06:09:49;101457.11;;;2.42;96.36
61488;BME280;47351;53.326;-6.298;2024-02-26T06:12:45;101453.70;;;2.40;96.39
61488;BME280;47351;53.326;-6.298;2024-02-26T06:15:58;101457.34;;;2.38;96.28
61488;BME280;47351;53.326;-6.298;2024-02-26T06:19:11;101461.34;;;2.36;96.26
61488;BME280;47351;53.326;-6.298;2024-02-26T06:22:15;101468.06;;;2.36;96.32
61488;BME280;47351;53.326;-6.298;2024-02-26T06:25:18;101473.63;;;2.37;96.60
61488;BME280;47351;53.326;-6.298;2024-02-26T06:28:31;101480.27;;;2.38;96.66
61488;BME280;47351;53.326;-6.298;2024-02-26T06:31:45;101489.63;;;2.37;96.58
61488;BME280;47351;53.326;-6.298;2024-02-26T06:34:49;101495.34;;;2.36;96.45
61488;BME280;47351;53.326;-6.298;2024-02-26T06:37:53;101494.56;;;2.34;96.52
61488;BME280;47351;53.326;-6.298;2024-02-26T06:41:06;101498.23;;;2.31;96.45
61488;BME280;47351;53.326;-6.298;2024-02-26T06:44:11;101507.04;;;2.28;96.45
61488;BME280;47351;53.326;-6.298;2024-02-26T06:47:24;101516.23;;;2.24;96.48
61488;BME280;47351;53.326;-6.298;2024-02-26T06:50:37;101520.45;;;2.21;96.45
61488;BME280;47351;53.326;-6.298;2024-02-26T06:53:43;101533.35;;;2.21;96.48
61488;BME280;47351;53.326;-6.298;2024-02-26T06:56:56;101541.59;;;2.21;96.61
61488;BME280;47351;53.326;-6.298;2024-02-26T07:00:12;101541.25;;;2.24;97.04
61488;BME280;47351;53.326;-6.298;2024-02-26T07:03:19;101541.73;;;2.25;96.99
61488;BME280;47351;53.326;-6.298;2024-02-26T07:06:16;101542.17;;;2.26;97.10
61488;BME280;47351;53.326;-6.298;2024-02-26T07:09:27;101540.64;;;2.25;97.03
61488;BME280;47351;53.326;-6.298;2024-02-26T07:12:33;101546.18;;;2.24;96.94
61488;BME280;47351;53.326;-6.298;2024-02-26T07:15:26;101548.40;;;2.22;96.89
61488;BME280;47351;53.326;-6.298;2024-02-26T07:18:36;101547.69;;;2.19;96.82
61488;BME280;47351;53.326;-6.298;2024-02-26T07:21:49;101557.71;;;2.16;96.75
61488;BME280;47351;53.326;-6.298;2024-02-26T07:25:01;101566.25;;;2.15;96.71
61488;BME280;47351;53.326;-6.298;2024-02-26T07:27:54;101571.89;;;2.15;96.73
61488;BME280;47351;53.326;-6.298;2024-02-26T07:30:56;101578.27;;;2.17;96.96
61488;BME280;47351;53.326;-6.298;2024-02-26T07:34:09;101581.21;;;2.21;97.36
61488;BME280;47351;53.326;-6.298;2024-02-26T07:37:22;101586.20;;;2.26;97.29
61488;BME280;47351;53.326;-6.298;2024-02-26T07:40:18;101588.98;;;2.30;97.32
61488;BME280;47351;53.326;-6.298;2024-02-26T07:43:24;101595.74;;;2.33;97.21
61488;BME280;47351;53.326;-6.298;2024-02-26T07:46:17;101601.73;;;2.32;96.74
61488;BME280;47351;53.326;-6.298;2024-02-26T07:49:21;101606.14;;;2.32;96.58
61488;BME280;47351;53.326;-6.298;2024-02-26T07:52:34;101611.77;;;2.32;96.52
61488;BME280;47351;53.326;-6.298;2024-02-26T07:55:29;101619.08;;;2.35;96.47
61488;BME280;47351;53.326;-6.298;2024-02-26T07:58:36;101629.59;;;2.39;96.56
61488;BME280;47351;53.326;-6.298;2024-02-26T08:01:29;101638.97;;;2.44;96.67
61488;BME280;47351;53.326;-6.298;2024-02-26T08:04:42;101635.61;;;2.51;96.83
61488;BME280;47351;53.326;-6.298;2024-02-26T08:07:45;101640.43;;;2.60;96.94
61488;BME280;47351;53.326;-6.298;2024-02-26T08:10:40;101648.26;;;2.68;96.92
61488;BME280;47351;53.326;-6.298;2024-02-26T08:13:52;101658.60;;;2.75;96.74
61488;BME280;47351;53.326;-6.298;2024-02-26T08:16:55;101664.44;;;2.82;96.61
61488;BME280;47351;53.326;-6.298;2024-02-26T08:19:58;101673.59;;;2.88;96.48
61488;BME280;47351;53.326;-6.298;2024-02-26T08:23:11;101678.04;;;2.94;96.34
61488;BME280;47351;53.326;-6.298;2024-02-26T08:26:16;101686.61;;;3.01;96.37
61488;BME280;47351;53.326;-6.298;2024-02-26T08:29:31;101688.58;;;3.10;96.45
61488;BME280;47351;53.326;-6.298;2024-02-26T08:32:45;101692.04;;;3.21;96.39
61488;BME280;47351;53.326;-6.298;2024-02-26T08:36:05;101697.95;;;3.32;96.37
61488;BME280;47351;53.326;-6.298;2024-02-26T08:39:01;101701.73;;;3.40;96.16
61488;BME280;47351;53.326;-6.298;2024-02-26T08:41:57;101694.63;;;3.46;96.02
61488;BME280;47351;53.326;-6.298;2024-02-26T08:45:00;101699.70;;;3.54;95.88
61488;BME280;47351;53.326;-6.298;2024-02-26T08:48:01;101704.66;;;3.62;95.78
61488;BME280;47351;53.326;-6.298;2024-02-26T08:51:08;101713.19;;;3.71;95.56
61488;BME280;47351;53.326;-6.298;2024-02-26T08:54:21;101724.80;;;3.81;95.51
61488;BME280;47351;53.326;-6.298;2024-02-26T08:57:35;101736.18;;;3.91;95.30
61488;BME280;47351;53.326;-6.298;2024-02-26T09:00:50;101741.90;;;4.05;94.93
61488;BME280;47351;53.326;-6.298;2024-02-26T09:03:47;101753.39;;;4.32;94.27
61488;BME280;47351;53.326;-6.298;2024-02-26T09:06:39;101758.65;;;5.12;91.91
61488;BME280;47351;53.326;-6.298;2024-02-26T09:09:32;101749.88;;;6.93;86.92
61488;BME280;47351;53.326;-6.298;2024-02-26T09:12:25;101746.77;;;9.02;83.23
61488;BME280;47351;53.326;-6.298;2024-02-26T09:15:18;101742.27;;;10.30;80.41
61488;BME280;47351;53.326;-6.298;2024-02-26T09:18:10;101739.42;;;11.62;76.28
61488;BME280;47351;53.326;-6.298;2024-02-26T09:21:05;101735.11;;;13.08;72.12
61488;BME280;47351;53.326;-6.298;2024-02-26T09:23:58;101730.64;;;14.62;71.35
61488;BME280;47351;53.326;-6.298;2024-02-26T09:26:50;101728.11;;;15.62;65.37
61488;BME280;47351;53.326;-6.298;2024-02-26T09:29:43;101735.45;;;15.41;59.76
61488;BME280;47351;53.326;-6.298;2024-02-26T09:32:35;101750.57;;;14.16;58.57
61488;BME280;47351;53.326;-6.298;2024-02-26T09:35:28;101760.17;;;12.56;61.42
61488;BME280;47351;53.326;-6.298;2024-02-26T09:38:24;101766.91;;;11.34;64.17
61488;BME280;47351;53.326;-6.298;2024-02-26T09:41:17;101773.17;;;10.29;66.00
61488;BME280;47351;53.326;-6.298;2024-02-26T09:44:11;101786.48;;;9.56;68.45
61488;BME280;47351;53.326;-6.298;2024-02-26T09:47:04;101800.84;;;9.01;70.16
61488;BME280;47351;53.326;-6.298;2024-02-26T09:50:00;101810.44;;;8.58;71.27
61488;BME280;47351;53.326;-6.298;2024-02-26T09:53:05;101810.17;;;8.17;72.36
61488;BME280;47351;53.326;-6.298;2024-02-26T09:56:11;101805.59;;;7.82;73.78
61488;BME280;47351;53.326;-6.298;2024-02-26T09:59:17;101802.39;;;7.59;75.07
61488;BME280;47351;53.326;-6.298;2024-02-26T10:02:13;101801.92;;;7.40;75.86
61488;BME280;47351;53.326;-6.298;2024-02-26T10:05:21;101798.00;;;7.21;76.54
61488;BME280;47351;53.326;-6.298;2024-02-26T10:08:16;101800.88;;;7.06;77.34
61488;BME280;47351;53.326;-6.298;2024-02-26T10:11:25;101800.71;;;6.95;78.02
61488;BME280;47351;53.326;-6.298;2024-02-26T10:14:19;101793.53;;;6.86;78.47
61488;BME280;47351;53.326;-6.298;2024-02-26T10:17:16;101784.55;;;6.78;78.72
61488;BME280;47351;53.326;-6.298;2024-02-26T10:20:20;101777.33;;;6.69;78.85
61488;BME280;47351;53.326;-6.298;2024-02-26T10:23:14;101775.14;;;6.65;79.28
61488;BME280;47351;53.326;-6.298;2024-02-26T10:26:27;101772.88;;;6.64;79.67
61488;BME280;47351;53.326;-6.298;2024-02-26T10:29:22;101777.49;;;6.64;79.81
61488;BME280;47351;53.326;-6.298;2024-02-26T10:32:35;101783.81;;;6.65;79.82
61488;BME280;47351;53.326;-6.298;2024-02-26T10:35:32;101781.86;;;6.70;80.13
61488;BME280;47351;53.326;-6.298;2024-02-26T10:38:41;101778.95;;;6.74;80.17
61488;BME280;47351;53.326;-6.298;2024-02-26T10:41:37;101779.86;;;6.84;80.38
61488;BME280;47351;53.326;-6.298;2024-02-26T10:44:29;101783.17;;;6.97;80.23
61488;BME280;47351;53.326;-6.298;2024-02-26T10:47:25;101773.31;;;8.26;77.56
61488;BME280;47351;53.326;-6.298;2024-02-26T10:50:17;101758.52;;;10.66;73.00
61488;BME280;47351;53.326;-6.298;2024-02-26T10:53:15;101764.79;;;10.49;72.41
61488;BME280;47351;53.326;-6.298;2024-02-26T10:56:12;101769.52;;;10.12;71.84
61488;BME280;47351;53.326;-6.298;2024-02-26T10:59:08;101776.52;;;9.73;72.52
61488;BME280;47351;53.326;-6.298;2024-02-26T11:02:02;101784.27;;;9.59;73.27
61488;BME280;47351;53.326;-6.298;2024-02-26T11:04:56;101794.48;;;9.51;72.06
61488;BME280;47351;53.326;-6.298;2024-02-26T11:07:51;101802.87;;;9.34;72.20
61488;BME280;47351;53.326;-6.298;2024-02-26T11:10:56;101810.49;;;9.19;72.18
61488;BME280;47351;53.326;-6.298;2024-02-26T11:13:49;101808.27;;;9.89;72.04
61488;BME280;47351;53.326;-6.298;2024-02-26T11:16:43;101797.38;;;13.47;65.13
61488;BME280;47351;53.326;-6.298;2024-02-26T11:19:37;101795.80;;;16.60;60.34
61488;BME280;47351;53.326;-6.298;2024-02-26T11:22:35;101793.10;;;19.45;54.50
61488;BME280;47351;53.326;-6.298;2024-02-26T11:39:51;101815.30;;;26.39;37.98
61488;BME280;47351;53.326;-6.298;2024-02-26T12:18:44;101883.45;;;23.67;31.35
61488;BME280;47351;53.326;-6.298;2024-02-26T12:33:48;101905.77;;;13.92;41.25
61488;BME280;47351;53.326;-6.298;2024-02-26T13:07:04;101902.81;;;10.42;50.53
61488;BME280;47351;53.326;-6.298;2024-02-26T13:10:26;101909.66;;;10.17;51.69
61488;BME280;47351;53.326;-6.298;2024-02-26T13:13:55;101913.36;;;10.02;51.29
61488;BME280;47351;53.326;-6.298;2024-02-26T13:16:55;101908.14;;;9.88;51.64
61488;BME280;47351;53.326;-6.298;2024-02-26T13:19:51;101907.35;;;9.77;52.58
61488;BME280;47351;53.326;-6.298;2024-02-26T13:22:49;101912.48;;;9.69;53.34
61488;BME280;47351;53.326;-6.298;2024-02-26T13:25:57;101918.01;;;9.62;53.07
61488;BME280;47351;53.326;-6.298;2024-02-26T13:29:00;101915.99;;;9.61;52.94
61488;BME280;47351;53.326;-6.298;2024-02-26T13:31:55;101913.58;;;9.62;52.93
61488;BME280;47351;53.326;-6.298;2024-02-26T13:34:46;101912.48;;;9.62;53.33
61488;BME280;47351;53.326;-6.298;2024-02-26T13:37:36;101918.00;;;9.63;53.81
61488;BME280;47351;53.326;-6.298;2024-02-26T13:40:26;101915.09;;;9.63;54.17
61488;BME280;47351;53.326;-6.298;2024-02-26T13:43:15;101918.77;;;9.62;54.07
61488;BME280;47351;53.326;-6.298;2024-02-26T13:46:08;101925.58;;;9.57;53.97
61488;BME280;47351;53.326;-6.298;2024-02-26T13:49:03;101924.75;;;9.47;54.26
61488;BME280;47351;53.326;-6.298;2024-02-26T13:51:53;101928.13;;;9.54;54.26
61488;BME280;47351;53.326;-6.298;2024-02-26T13:54:47;101928.83;;;9.72;53.61
61488;BME280;47351;53.326;-6.298;2024-02-26T13:57:48;101929.90;;;9.83;53.27
61488;BME280;47351;53.326;-6.298;2024-02-26T14:00:51;101933.02;;;9.80;52.91
61488;BME280;47351;53.326;-6.298;2024-02-26T14:04:01;101934.35;;;9.63;53.08
61488;BME280;47351;53.326;-6.298;2024-02-26T14:06:52;101933.42;;;9.48;53.15
61488;BME280;47351;53.326;-6.298;2024-02-26T14:10:03;101930.36;;;9.32;53.64
61488;BME280;47351;53.326;-6.298;2024-02-26T14:12:56;101931.83;;;9.29;54.46
61488;BME280;47351;53.326;-6.298;2024-02-26T14:15:46;101936.91;;;9.26;54.43
61488;BME280;47351;53.326;-6.298;2024-02-26T14:18:57;101929.63;;;9.37;54.49
61488;BME280;47351;53.326;-6.298;2024-02-26T14:21:47;101929.97;;;9.60;54.44
61488;BME280;47351;53.326;-6.298;2024-02-26T14:24:37;101929.11;;;9.70;54.25
61488;BME280;47351;53.326;-6.298;2024-02-26T14:27:38;101918.33;;;9.76;54.54
61488;BME280;47351;53.326;-6.298;2024-02-26T14:30:28;101915.90;;;9.75;54.79
61488;BME280;47351;53.326;-6.298;2024-02-26T14:33:21;101910.80;;;9.67;54.92
61488;BME280;47351;53.326;-6.298;2024-02-26T14:36:19;101909.29;;;9.53;54.79
61488;BME280;47351;53.326;-6.298;2024-02-26T14:39:50;101906.56;;;9.34;55.03
61488;BME280;47351;53.326;-6.298;2024-02-26T14:42:45;101904.36;;;9.12;55.01
61488;BME280;47351;53.326;-6.298;2024-02-26T14:45:46;101905.98;;;8.95;55.16
61488;BME280;47351;53.326;-6.298;2024-02-26T14:58:42;101932.52;;;8.55;55.88
61488;BME280;47351;53.326;-6.298;2024-02-26T15:09:38;101940.98;;;8.71;55.48
61488;BME280;47351;53.326;-6.298;2024-02-26T15:20:11;101943.09;;;8.85;54.18
61488;BME280;47351;53.326;-6.298;2024-02-26T15:23:15;101939.34;;;8.78;54.37
61488;BME280;47351;53.326;-6.298;2024-02-26T15:30:14;101936.98;;;8.98;55.07
61488;BME280;47351;53.326;-6.298;2024-02-26T15:38:09;101957.42;;;9.44;54.62
61488;BME280;47351;53.326;-6.298;2024-02-26T15:45:32;101967.39;;;9.67;54.13
61488;BME280;47351;53.326;-6.298;2024-02-26T15:49:09;101963.10;;;9.67;53.91
61488;BME280;47351;53.326;-6.298;2024-02-26T15:56:08;101957.31;;;9.74;54.33
61488;BME280;47351;53.326;-6.298;2024-02-26T15:59:04;101958.83;;;9.83;54.51
61488;BME280;47351;53.326;-6.298;2024-02-26T16:01:59;101956.34;;;9.87;54.60
61488;BME280;47351;53.326;-6.298;2024-02-26T16:05:15;101956.26;;;9.88;54.80
61488;BME280;47351;53.326;-6.298;2024-02-26T16:08:33;101958.39;;;9.82;54.75
61488;BME280;47351;53.326;-6.298;2024-02-26T16:11:23;101954.27;;;9.73;55.23
61488;BME280;47351;53.326;-6.298;2024-02-26T16:14:15;101954.55;;;9.62;55.43
61488;BME280;47351;53.326;-6.298;2024-02-26T16:17:11;101955.01;;;9.48;55.65
61488;BME280;47351;53.326;-6.298;2024-02-26T16:20:06;101957.68;;;9.31;55.75
61488;BME280;47351;53.326;-6.298;2024-02-26T16:23:16;101963.87;;;9.14;55.71
61488;BME280;47351;53.326;-6.298;2024-02-26T16:27:08;101971.79;;;8.92;55.89
61488;BME280;47351;53.326;-6.298;2024-02-26T16:30:05;101988.88;;;8.77;56.45
61488;BME280;47351;53.326;-6.298;2024-02-26T16:33:15;101998.45;;;8.64;56.75
61488;BME280;47351;53.326;-6.298;2024-02-26T16:36:06;102002.45;;;8.51;57.07
61488;BME280;47351;53.326;-6.298;2024-02-26T16:38:59;102004.41;;;8.38;57.37
61488;BME280;47351;53.326;-6.298;2024-02-26T16:42:24;102011.58;;;8.25;57.73
61488;BME280;47351;53.326;-6.298;2024-02-26T16:45:14;102021.35;;;8.15;58.02
61488;BME280;47351;53.326;-6.298;2024-02-26T16:48:04;102027.62;;;8.07;58.39
61488;BME280;47351;53.326;-6.298;2024-02-26T16:51:11;102030.66;;;8.00;58.57
61488;BME280;47351;53.326;-6.298;2024-02-26T16:54:02;102033.61;;;7.93;58.74
61488;BME280;47351;53.326;-6.298;2024-02-26T16:56:55;102036.59;;;7.88;58.99
61488;BME280;47351;53.326;-6.298;2024-02-26T16:59:44;102037.12;;;7.86;59.24
61488;BME280;47351;53.326;-6.298;2024-02-26T17:02:38;102036.40;;;7.83;59.44
61488;BME280;47351;53.326;-6.298;2024-02-26T17:05:28;102033.63;;;7.85;59.58
61488;BME280;47351;53.326;-6.298;2024-02-26T17:08:18;102030.70;;;7.92;59.87
61488;BME280;47351;53.326;-6.298;2024-02-26T17:11:08;102024.37;;;7.98;59.87
61488;BME280;47351;53.326;-6.298;2024-02-26T17:14:08;102019.55;;;8.01;59.86
61488;BME280;47351;53.326;-6.298;2024-02-26T17:17:01;102007.94;;;8.02;59.81
61488;BME280;47351;53.326;-6.298;2024-02-26T17:19:55;102002.84;;;8.01;59.85
61488;BME280;47351;53.326;-6.298;2024-02-26T17:22:46;102004.02;;;7.99;59.92
61488;BME280;47351;53.326;-6.298;2024-02-26T17:25:43;102011.71;;;7.96;60.17
61488;BME280;47351;53.326;-6.298;2024-02-26T17:28:54;102015.63;;;7.91;60.35
61488;BME280;47351;53.326;-6.298;2024-02-26T17:32:06;102017.81;;;7.85;60.62
61488;BME280;47351;53.326;-6.298;2024-02-26T17:35:20;102018.08;;;7.79;60.70
61488;BME280;47351;53.326;-6.298;2024-02-26T17:38:11;102017.83;;;7.72;60.86
61488;BME280;47351;53.326;-6.298;2024-02-26T17:41:23;102021.61;;;7.64;61.17
61488;BME280;47351;53.326;-6.298;2024-02-26T17:44:13;102029.63;;;7.56;61.27
61488;BME280;47351;53.326;-6.298;2024-02-26T17:47:06;102030.27;;;7.47;61.56
61488;BME280;47351;53.326;-6.298;2024-02-26T17:49:59;102032.67;;;7.37;61.89
61488;BME280;47351;53.326;-6.298;2024-02-26T17:52:49;102037.66;;;7.29;62.08
61488;BME280;47351;53.326;-6.298;2024-02-26T17:55:42;102047.85;;;7.21;62.13
61488;BME280;47351;53.326;-6.298;2024-02-26T17:58:31;102053.55;;;7.12;62.23
61488;BME280;47351;53.326;-6.298;2024-02-26T18:01:21;102057.35;;;7.04;62.36
61488;BME280;47351;53.326;-6.298;2024-02-26T18:04:10;102059.56;;;6.97;62.51
61488;BME280;47351;53.326;-6.298;2024-02-26T18:07:20;102068.46;;;6.88;62.64
61488;BME280;47351;53.326;-6.298;2024-02-26T18:10:31;102074.44;;;6.78;62.89
61488;BME280;47351;53.326;-6.298;2024-02-26T18:13:21;102082.39;;;6.71;62.83